Time;durP1;ratioP1;P1;durP2;ratioP2;P2;SDS_P1;SDS_P2;PMS_P1;PMS_P2;Temp;Humidity;BMP_temperature;BMP_pressure;BME280_temperature;BME280_humidity;BME280_pressure;Samples;Min_cycle;Max_cycle;Signal;HPM_P1;HPM_P2
2021/11/13 00:02:19;;;;;;;1999.90;999.90;;;8.60;99.90;;;;;;5021500;28;20217;-82
2021/11/13 00:04:45;;;;;;;1999.90;999.90;;;8.80;99.90;;;;;;5020776;28;20198;-81
2021/11/13 00:07:10;;;;;;;1999.90;999.90;;;8.90;99.90;;;;;;5020745;28;20266;-81
2021/11/13 00:09:36;;;;;;;1999.90;999.90;;;8.70;99.90;;;;;;5019714;28;20559;-82
2021/11/13 00:12:02;;;;;;;1999.90;999.90;;;9.20;99.90;;;;;;5020312;28;20182;-81
2021/11/13 00:14:29;;;;;;;1999.90;999.90;;;8.80;99.90;;;;;;5020818;28;20179;-82
2021/11/13 00:16:55;;;;;;;1999.90;999.90;;;8.90;99.90;;;;;;5037625;28;20178;-82
2021/11/13 00:19:21;;;;;;;1999.90;999.90;;;9.10;99.90;;;;;;5019561;28;20191;-82
2021/11/13 00:21:46;;;;;;;1999.90;999.90;;;9.10;99.90;;;;;;5020772;28;20214;-82
2021/11/13 00:24:12;;;;;;;1999.90;999.90;;;8.80;99.90;;;;;;5020034;28;20185;-82
2021/11/13 00:26:38;;;;;;;1999.90;999.90;;;9.10;99.90;;;;;;5021294;28;20171;-81
2021/11/13 00:29:04;;;;;;;1999.90;999.90;;;8.90;99.90;;;;;;5020468;28;20203;-82
2021/11/13 00:31:29;;;;;;;1999.90;999.90;;;9.00;99.90;;;;;;5021273;28;20199;-82
2021/11/13 00:33:55;;;;;;;1999.90;999.90;;;8.90;99.90;;;;;;5020685;28;20220;-81
2021/11/13 00:36:20;;;;;;;1999.90;999.90;;;8.90;99.90;;;;;;5037293;28;20551;-82
2021/11/13 00:38:46;;;;;;;1999.90;999.90;;;9.20;99.90;;;;;;5019688;28;20225;-82
2021/11/13 00:41:12;;;;;;;1999.90;999.90;;;8.90;99.90;;;;;;5019068;28;20274;-81
2021/11/13 00:43:37;;;;;;;1999.90;999.90;;;9.00;99.90;;;;;;5019272;28;20184;-82
2021/11/13 00:46:04;;;;;;;1999.90;999.90;;;8.90;99.90;;;;;;5018653;28;20182;-82
2021/11/13 00:48:30;;;;;;;1999.90;999.90;;;9.00;99.90;;;;;;5017805;28;20670;-80
2021/11/13 00:50:55;;;;;;;1999.90;999.90;;;9.10;99.90;;;;;;5018556;28;20205;-82
2021/11/13 00:53:21;;;;;;;1999.90;999.90;;;9.00;99.90;;;;;;5018842;28;20253;-82
2021/11/13 00:55:46;;;;;;;1999.90;999.90;;;9.20;99.90;;;;;;5035520;28;20179;-82
2021/11/13 00:58:12;;;;;;;1999.90;999.90;;;8.70;99.90;;;;;;5034799;28;20203;-82
2021/11/13 01:00:38;;;;;;;1999.90;999.90;;;8.70;99.90;;;;;;5019189;28;20206;-82
2021/11/13 01:03:03;;;;;;;1999.90;999.90;;;8.90;99.90;;;;;;5018539;28;20209;-83
2021/11/13 01:05:29;;;;;;;1999.90;999.90;;;8.90;99.90;;;;;;5017578;28;20182;-82
2021/11/13 01:07:55;;;;;;;1999.90;999.90;;;9.10;99.90;;;;;;5017262;28;20636;-82
2021/11/13 01:10:21;;;;;;;1999.90;999.90;;;8.80;99.90;;;;;;5017346;28;20198;-82
2021/11/13 01:12:47;;;;;;;1999.90;999.90;;;8.80;99.90;;;;;;5017637;28;20178;-83
2021/11/13 01:15:14;;;;;;;1999.90;999.90;;;8.90;99.90;;;;;;5033933;28;20175;-83
2021/11/13 01:17:39;;;;;;;1999.90;999.90;;;8.80;99.90;;;;;;5017269;28;20183;-83
2021/11/13 01:20:06;;;;;;;1999.90;999.90;;;8.80;99.90;;;;;;5015890;28;20217;-83
2021/11/13 01:22:32;;;;;;;1999.90;999.90;;;8.90;99.90;;;;;;5016664;28;20572;-82
2021/11/13 01:24:57;;;;;;;1999.90;999.90;;;9.00;99.90;;;;;;5016738;28;20206;-82
2021/11/13 01:27:23;;;;;;;1999.90;999.90;;;9.20;99.90;;;;;;5035436;28;20205;-81
2021/11/13 01:29:49;;;;;;;1999.90;999.90;;;9.10;99.90;;;;;;5018966;28;20205;-82
2021/11/13 01:32:15;;;;;;;1999.90;999.90;;;8.90;99.90;;;;;;5019817;28;20257;-82
2021/11/13 01:34:40;;;;;;;1999.90;999.90;;;8.80;99.90;;;;;;5020266;28;20183;-83
2021/11/13 01:37:07;;;;;;;1999.90;999.90;;;8.80;99.90;;;;;;5019690;28;20176;-82
2021/11/13 01:39:33;;;;;;;1999.90;999.90;;;8.80;99.90;;;;;;5018617;28;20197;-83
2021/11/13 01:41:59;;;;;;;1999.90;999.90;;;8.80;99.90;;;;;;5019398;28;20199;-82
2021/11/13 01:44:24;;;;;;;1999.90;999.90;;;8.80;99.90;;;;;;5019077;28;20171;-82
2021/11/13 01:46:50;;;;;;;1999.90;999.90;;;8.80;99.90;;;;;;5019202;28;20179;-82
2021/11/13 01:49:15;;;;;;;1999.90;999.90;;;8.80;99.90;;;;;;5018256;28;20257;-82
2021/11/13 01:51:45;;;;;;;1999.90;999.90;;;8.70;99.90;;;;;;5018601;28;20234;-82
2021/11/13 01:54:12;;;;;;;1999.90;999.90;;;;;;;;;;5022270;28;20179;-82
2021/11/13 01:56:39;;;;;;;1999.90;999.90;;;8.90;99.90;;;;;;5056199;28;20183;-81
2021/11/13 01:59:05;;;;;;;1999.90;999.90;;;8.80;99.90;;;;;;5022735;28;20625;-82
2021/11/13 02:01:31;;;;;;;1999.90;999.90;;;8.90;99.90;;;;;;5022496;28;20681;-82
2021/11/13 02:03:57;;;;;;;1999.90;999.90;;;8.80;99.90;;;;;;5023519;28;20179;-81
2021/11/13 02:06:23;;;;;;;1999.90;999.90;;;8.80;99.90;;;;;;5039807;28;20239;-82
2021/11/13 02:08:48;;;;;;;1999.90;999.90;;;8.80;99.90;;;;;;5021938;28;20216;-82
2021/11/13 02:11:16;;;;;;;1999.90;999.90;;;8.90;99.90;;;;;;5022175;28;20199;-79
2021/11/13 02:13:42;;;;;;;1999.90;999.90;;;8.90;99.90;;;;;;5018843;28;20195;-79
2021/11/13 02:16:08;;;;;;;1999.90;999.90;;;8.80;99.90;;;;;;5018590;28;20187;-79
2021/11/13 02:18:35;;;;;;;1999.90;999.90;;;9.10;99.90;;;;;;5017939;28;20183;-79
2021/11/13 02:21:01;;;;;;;1999.90;999.90;;;9.00;99.90;;;;;;5018232;28;20215;-79
2021/11/13 02:23:26;;;;;;;1999.90;999.90;;;9.20;99.90;;;;;;5018436;28;20190;-79
2021/11/13 02:25:52;;;;;;;1999.90;999.90;;;9.00;99.90;;;;;;5018289;28;20186;-79
2021/11/13 02:28:20;;;;;;;1999.90;999.90;;;9.20;99.90;;;;;;5034774;28;20250;-80
2021/11/13 02:30:46;;;;;;;1999.90;999.90;;;9.30;99.90;;;;;;5018170;28;20553;-79
2021/11/13 02:33:12;;;;;;;1999.90;999.90;;;8.90;99.90;;;;;;5018407;28;20183;-79
2021/11/13 02:35:38;;;;;;;1999.90;999.90;;;8.90;99.90;;;;;;5035809;28;20572;-80
2021/11/13 02:38:24;;;;;;;1999.90;999.90;;;9.00;99.90;;;;;;5018376;28;20189;-79
2021/11/13 02:40:51;;;;;;;1999.90;999.90;;;9.00;99.90;;;;;;5018057;28;20213;-80
2021/11/13 02:43:17;;;;;;;1999.90;999.90;;;9.30;99.90;;;;;;5018084;28;20186;-80
2021/11/13 02:45:44;;;;;;;1999.90;999.90;;;9.00;99.90;;;;;;5017867;28;20533;-79
2021/11/13 02:48:09;;;;;;;1999.90;999.90;;;9.20;99.90;;;;;;5033918;28;20182;-80
2021/11/13 02:50:36;;;;;;;1999.90;999.90;;;8.90;99.90;;;;;;5017186;28;20208;-79
2021/11/13 02:53:02;;;;;;;1999.90;999.90;;;9.30;99.90;;;;;;5017342;28;20261;-79
2021/11/13 02:55:27;;;;;;;1999.90;999.90;;;9.00;99.90;;;;;;5017627;28;20190;-79
2021/11/13 02:57:53;;;;;;;1999.90;999.90;;;9.20;99.90;;;;;;5017247;28;20180;-80
2021/11/13 03:00:21;;;;;;;1999.90;999.90;;;9.10;99.90;;;;;;5034087;28;20207;-79
2021/11/13 03:02:47;;;;;;;1999.90;999.90;;;9.20;99.90;;;;;;5050804;28;20204;-80
2021/11/13 03:05:24;;;;;;;1999.90;999.90;;;9.10;99.90;;;;;;5016621;28;20194;-80
2021/11/13 03:07:51;;;;;;;1999.90;999.90;;;9.00;99.90;;;;;;5017090;28;20185;-80
2021/11/13 03:10:16;;;;;;;1999.90;999.90;;;9.10;99.90;;;;;;5034124;28;20192;-79
2021/11/13 03:12:44;;;;;;;1999.90;999.90;;;8.70;99.90;;;;;;5017707;28;20233;-79
2021/11/13 03:15:12;;;;;;;1999.90;999.90;;;8.70;99.90;;;;;;5017617;28;20187;-80
2021/11/13 03:17:38;;;;;;;1999.90;999.90;;;8.70;99.90;;;;;;5017484;28;20192;-80
2021/11/13 03:20:11;;;;;;;1999.90;999.90;;;8.70;99.90;;;;;;5017020;28;20224;-79
2021/11/13 03:22:38;;;;;;;1999.90;999.90;;;8.80;99.90;;;;;;5033934;28;20214;-79
2021/11/13 03:25:06;;;;;;;1999.90;999.90;;;8.60;99.90;;;;;;5034408;28;20368;-79
2021/11/13 03:27:31;;;;;;;1999.90;999.90;;;8.80;99.90;;;;;;5033762;28;20205;-79
2021/11/13 03:29:57;;;;;;;1999.90;999.90;;;8.70;99.90;;;;;;5049958;28;20298;-79
2021/11/13 03:32:23;;;;;;;1999.90;999.90;;;8.60;99.90;;;;;;5050308;28;20180;-79
2021/11/13 03:34:48;;;;;;;1999.90;999.90;;;8.60;99.90;;;;;;5016977;28;20183;-80
2021/11/13 03:37:14;;;;;;;1999.90;999.90;;;8.60;99.90;;;;;;5016703;28;20645;-80
2021/11/13 03:39:40;;;;;;;1999.90;999.90;;;8.60;99.90;;;;;;5033383;28;20199;-79
2021/11/13 03:42:05;;;;;;;1999.90;999.90;;;8.70;99.90;;;;;;5017265;28;20249;-79
2021/11/13 03:44:31;;;;;;;1999.90;999.90;;;8.60;99.90;;;;;;5017389;28;20183;-79
2021/11/13 03:46:56;;;;;;;1999.90;999.90;;;8.60;99.90;;;;;;5016634;28;20214;-80
2021/11/13 03:49:22;;;;;;;1999.90;999.90;;;8.50;99.90;;;;;;5033916;28;20206;-79
2021/11/13 03:51:47;;;;;;;1999.90;999.90;;;8.60;99.90;;;;;;5016970;28;20210;-79
2021/11/13 03:54:13;;;;;;;1999.90;999.90;;;8.50;99.90;;;;;;5033714;28;20171;-80
2021/11/13 03:56:39;;;;;;;1999.90;999.90;;;8.40;99.90;;;;;;5050036;28;20273;-80
2021/11/13 03:59:06;;;;;;;1999.90;999.90;;;8.20;99.90;;;;;;5016922;28;20179;-81
2021/11/13 04:01:35;;;;;;;1999.90;999.90;;;8.30;99.90;;;;;;5017068;28;20614;-79
2021/11/13 04:04:00;;;;;;;1999.90;999.90;;;8.20;99.90;;;;;;5016941;28;20179;-79
2021/11/13 04:06:26;;;;;;;1999.90;999.90;;;8.20;99.90;;;;;;5016559;28;20182;-79
2021/11/13 04:08:51;;;;;;;1999.90;999.90;;;8.20;99.90;;;;;;5016328;28;20186;-79
2021/11/13 04:11:17;;;;;;;1999.90;999.90;;;8.10;99.90;;;;;;5016892;28;20569;-80
2021/11/13 04:13:43;;;;;;;1999.90;999.90;;;8.10;99.90;;;;;;5016966;28;20182;-81
2021/11/13 04:16:08;;;;;;;1999.90;999.90;;;8.10;99.90;;;;;;5032608;28;20252;-79
2021/11/13 04:18:34;;;;;;;1999.90;999.90;;;8.10;99.90;;;;;;5032503;28;20210;-79
2021/11/13 04:21:00;;;;;;;1999.90;999.90;;;8.00;99.90;;;;;;5016483;28;20352;-80
2021/11/13 04:23:26;;;;;;;1999.90;999.90;;;8.10;99.90;;;;;;5016617;28;20171;-79
2021/11/13 04:25:51;;;;;;;1999.90;999.90;;;8.00;99.90;;;;;;5033331;28;20253;-81
2021/11/13 04:28:17;;;;;;;1999.90;999.90;;;8.10;99.90;;;;;;5016162;28;20183;-80
2021/11/13 04:30:45;;;;;;;1999.90;999.90;;;7.90;99.90;;;;;;5015726;28;20195;-79
2021/11/13 04:33:11;;;;;;;1999.90;999.90;;;8.00;99.90;;;;;;5049869;28;20184;-82
2021/11/13 04:35:48;;;;;;;1999.90;999.90;;;7.90;99.90;;;;;;5033274;28;20183;-81
2021/11/13 04:38:14;;;;;;;1999.90;999.90;;;7.90;99.90;;;;;;5032806;28;20178;-81
2021/11/13 04:40:40;;;;;;;1999.90;999.90;;;8.10;99.90;;;;;;5016219;28;20214;-81
2021/11/13 04:43:05;;;;;;;1999.90;999.90;;;7.90;99.90;;;;;;5016612;28;20193;-79
2021/11/13 04:45:31;;;;;;;1999.90;999.90;;;7.90;99.90;;;;;;5017207;28;20191;-80
2021/11/13 04:47:56;;;;;;;1999.90;999.90;;;7.90;99.90;;;;;;5016223;28;20186;-79
2021/11/13 04:50:24;;;;;;;1999.90;999.90;;;8.00;99.90;;;;;;5015797;28;20201;-79
2021/11/13 04:52:50;;;;;;;1999.90;999.90;;;7.90;99.90;;;;;;5015449;28;20241;-81
2021/11/13 04:55:16;;;;;;;1999.90;999.90;;;8.10;99.90;;;;;;5032031;28;20641;-79
2021/11/13 04:57:41;;;;;;;1999.90;999.90;;;7.90;99.90;;;;;;5048456;28;20217;-79
2021/11/13 05:00:09;;;;;;;1999.90;999.90;;;7.90;99.90;;;;;;5015400;28;20226;-80
2021/11/13 05:02:34;;;;;;;1999.90;999.90;;;7.80;99.90;;;;;;5015292;28;20591;-80
2021/11/13 05:05:00;;;;;;;1999.90;999.90;;;7.90;99.90;;;;;;5049094;28;20174;-80
2021/11/13 05:07:25;;;;;;;1999.90;999.90;;;7.90;99.90;;;;;;5015832;28;20182;-80
2021/11/13 05:09:55;;;;;;;1999.90;999.90;;;8.10;99.90;;;;;;5015819;28;20214;-80
2021/11/13 05:12:20;;;;;;;1999.90;999.90;;;7.90;99.90;;;;;;5015657;28;20183;-81
2021/11/13 05:14:46;;;;;;;1999.90;999.90;;;7.90;99.90;;;;;;5033116;28;20316;-80
2021/11/13 05:17:12;;;;;;;1999.90;999.90;;;7.90;99.90;;;;;;5015679;28;20296;-79
2021/11/13 05:19:37;;;;;;;1999.90;999.90;;;7.80;99.90;;;;;;5014935;28;20699;-79
2021/11/13 05:22:04;;;;;;;1999.90;999.90;;;7.90;99.90;;;;;;5031895;28;20754;-80
2021/11/13 05:24:30;;;;;;;1999.90;999.90;;;8.20;99.90;;;;;;5015182;28;20172;-79
2021/11/13 05:26:55;;;;;;;1999.90;999.90;;;8.00;99.90;;;;;;5015206;28;20667;-81
2021/11/13 05:29:21;;;;;;;1999.90;999.90;;;7.90;99.90;;;;;;5014785;28;20542;-80
2021/11/13 05:31:46;;;;;;;1999.90;999.90;;;8.20;99.90;;;;;;5015222;28;20192;-79
2021/11/13 05:34:13;;;;;;;1999.90;999.90;;;7.90;99.90;;;;;;5031656;28;20186;-79
2021/11/13 05:36:39;;;;;;;1999.90;999.90;;;8.00;99.90;;;;;;5031421;28;20270;-81
2021/11/13 05:39:05;;;;;;;1999.90;999.90;;;8.20;99.90;;;;;;5014319;28;20187;-79
2021/11/13 05:41:31;;;;;;;1999.90;999.90;;;7.90;99.90;;;;;;5014735;28;20210;-81
2021/11/13 05:43:56;;;;;;;1999.90;999.90;;;7.90;99.90;;;;;;5015408;28;20183;-79
2021/11/13 05:46:22;;;;;;;1999.90;999.90;;;8.00;99.90;;;;;;5031969;28;20179;-79
2021/11/13 05:48:47;;;;;;;1999.90;999.90;;;8.00;99.90;;;;;;5017047;28;20554;-79
2021/11/13 05:51:13;;;;;;;1999.90;999.90;;;8.00;99.90;;;;;;5016901;28;20206;-81
2021/11/13 05:53:39;;;;;;;1999.90;999.90;;;8.10;99.90;;;;;;5017352;28;20198;-79
2021/11/13 05:56:05;;;;;;;1999.90;999.90;;;8.10;99.90;;;;;;5034158;28;20549;-80
2021/11/13 05:58:30;;;;;;;1999.90;999.90;;;7.90;99.90;;;;;;5017158;28;20186;-79
2021/11/13 06:00:56;;;;;;;1999.90;999.90;;;8.00;99.90;;;;;;5016629;28;20207;-81
2021/11/13 06:03:22;;;;;;;1999.90;999.90;;;8.00;99.90;;;;;;5033804;28;20185;-79
2021/11/13 06:05:47;;;;;;;1999.90;999.90;;;7.90;99.90;;;;;;5017662;28;20184;-80
2021/11/13 06:08:13;;;;;;;1999.90;999.90;;;7.90;99.90;;;;;;5050993;28;20178;-79
2021/11/13 06:10:39;;;;;;;1999.90;999.90;;;8.10;99.90;;;;;;5017508;28;20208;-79
2021/11/13 06:13:04;;;;;;;1999.90;999.90;;;7.90;99.90;;;;;;5017489;28;20205;-80
2021/11/13 06:15:30;;;;;;;1999.90;999.90;;;8.00;99.90;;;;;;5015292;28;20174;-80
2021/11/13 06:17:57;;;;;;;1999.90;999.90;;;8.20;99.90;;;;;;5030873;28;20211;-80
2021/11/13 06:20:23;;;;;;;1999.90;999.90;;;8.00;99.90;;;;;;5014977;28;20215;-79
2021/11/13 06:22:48;;;;;;;1999.90;999.90;;;8.00;99.90;;;;;;5014688;28;20223;-79
2021/11/13 06:25:14;;;;;;;1999.90;999.90;;;8.00;99.90;;;;;;5014646;28;20184;-79
2021/11/13 06:27:40;;;;;;;1999.90;999.90;;;8.10;99.90;;;;;;5014565;28;20180;-81
2021/11/13 06:30:07;;;;;;;1999.90;999.90;;;7.90;99.90;;;;;;5014514;28;20258;-79
2021/11/13 06:32:32;;;;;;;1999.90;999.90;;;7.90;99.90;;;;;;5014510;28;20193;-79
2021/11/13 06:34:59;;;;;;;1999.90;999.90;;;8.60;99.90;;;;;;5031360;28;20254;-80
2021/11/13 06:37:25;;;;;;;1999.90;999.90;;;8.00;99.90;;;;;;5015016;28;20202;-80
2021/11/13 06:39:51;;;;;;;1999.90;999.90;;;7.90;99.90;;;;;;5015457;28;20198;-80
2021/11/13 06:42:17;;;;;;;1999.90;999.90;;;8.10;99.90;;;;;;5018829;28;20348;-79
2021/11/13 06:44:42;;;;;;;1999.90;999.90;;;8.00;99.90;;;;;;5034323;28;20628;-82
2021/11/13 06:47:08;;;;;;;1999.90;999.90;;;8.30;99.90;;;;;;5017586;28;20186;-79
2021/11/13 06:49:33;;;;;;;1999.90;999.90;;;8.00;99.90;;;;;;5017254;28;20227;-79
2021/11/13 06:51:59;;;;;;;1999.90;999.90;;;8.10;99.90;;;;;;5017878;28;20188;-79
2021/11/13 06:54:25;;;;;;;1999.90;999.90;;;8.10;99.90;;;;;;5033714;28;20603;-80
2021/11/13 06:56:50;;;;;;;1999.90;999.90;;;8.00;99.90;;;;;;5017579;28;20330;-79
2021/11/13 06:59:16;;;;;;;1999.90;999.90;;;8.10;99.90;;;;;;5016761;28;20555;-79
2021/11/13 07:01:41;;;;;;;1999.90;999.90;;;8.10;99.90;;;;;;5033649;28;20198;-79
2021/11/13 07:04:07;;;;;;;1999.90;999.90;;;8.20;99.90;;;;;;5017664;28;20183;-81
2021/11/13 07:06:32;;;;;;;1999.90;999.90;;;8.20;99.90;;;;;;5033545;28;20553;-79
2021/11/13 07:08:58;;;;;;;1999.90;999.90;;;8.10;99.90;;;;;;5017316;28;20205;-79
2021/11/13 07:11:24;;;;;;;1999.90;999.90;;;8.20;99.90;;;;;;5016989;28;20206;-78
2021/11/13 07:13:49;;;;;;;1999.90;999.90;;;8.10;99.90;;;;;;5034039;28;20591;-82
2021/11/13 07:16:15;;;;;;;1999.90;999.90;;;8.20;99.90;;;;;;5034550;28;20532;-80
2021/11/13 07:18:40;;;;;;;1999.90;999.90;;;8.20;99.90;;;;;;5018160;28;20593;-80
2021/11/13 07:21:07;;;;;;;1999.90;999.90;;;8.30;99.90;;;;;;5017513;28;20215;-78
2021/11/13 07:23:33;;;;;;;1999.90;999.90;;;8.10;99.90;;;;;;5034925;28;20176;-79
2021/11/13 07:25:59;;;;;;;1999.90;999.90;;;8.20;99.90;;;;;;5051110;28;20556;-79
2021/11/13 07:28:41;;;;;;;1999.90;999.90;;;8.10;99.90;;;;;;5071146;28;20175;-79
2021/11/13 07:31:12;;;;;;;1999.90;999.90;;;8.40;99.90;;;;;;5054073;28;20213;-79
2021/11/13 07:33:38;;;;;;;1999.90;999.90;;;8.10;99.90;;;;;;5054337;28;20181;-82
2021/11/13 07:36:04;;;;;;;1999.90;999.90;;;8.10;99.90;;;;;;5033203;28;20179;-79
2021/11/13 07:38:30;;;;;;;1999.90;999.90;;;8.10;99.90;;;;;;5049471;28;20182;-81
2021/11/13 07:40:55;;;;;;;1999.90;999.90;;;8.20;99.90;;;;;;5016753;28;20635;-79
2021/11/13 07:43:21;;;;;;;1999.90;999.90;;;8.10;99.90;;;;;;5031348;28;20188;-79
2021/11/13 07:45:47;;;;;;;1999.90;999.90;;;8.20;99.90;;;;;;5033566;28;20181;-80
2021/11/13 07:48:12;;;;;;;1999.90;999.90;;;8.20;99.90;;;;;;5052729;28;21226;-80
2021/11/13 07:50:38;;;;;;;1999.90;999.90;;;8.10;99.90;;;;;;5045466;28;20247;-80
2021/11/13 07:53:04;;;;;;;1999.90;999.90;;;8.10;99.90;;;;;;5060529;28;20198;-79
2021/11/13 07:55:30;;;;;;;1999.90;999.90;;;8.50;99.90;;;;;;5034788;28;20654;-81
2021/11/13 07:57:56;;;;;;;1999.90;999.90;;;8.10;99.90;;;;;;5056488;28;20186;-81
2021/11/13 08:00:21;;;;;;;1999.90;999.90;;;8.30;99.90;;;;;;5041393;28;20288;-83
2021/11/13 08:02:47;;;;;;;1999.90;999.90;;;8.60;99.90;;;;;;5073930;28;20685;-83
2021/11/13 08:05:14;;;;;;;1999.90;999.90;;;8.10;99.90;;;;;;5058117;28;20177;-83
2021/11/13 08:07:39;;;;;;;1999.90;999.90;;;8.10;99.90;;;;;;5066625;28;20562;-82
2021/11/13 08:10:06;;;;;;;1999.90;999.90;;;8.00;99.90;;;;;;5035733;28;20198;-83
2021/11/13 08:12:31;;;;;;;1999.90;999.90;;;8.10;99.90;;;;;;5059290;28;20178;-79
2021/11/13 08:14:57;;;;;;;1999.90;999.90;;;8.20;99.90;;;;;;5059177;28;20177;-78
2021/11/13 08:17:22;;;;;;;1999.90;999.90;;;8.20;99.90;;;;;;5055861;28;20174;-78
2021/11/13 08:19:48;;;;;;;1999.90;999.90;;;8.30;99.90;;;;;;5038243;28;20705;-78
2021/11/13 08:22:14;;;;;;;1999.90;999.90;;;8.20;99.90;;;;;;5023569;28;20339;-78
2021/11/13 08:24:39;;;;;;;1999.90;999.90;;;8.20;99.90;;;;;;5022933;28;20187;-79
2021/11/13 08:27:05;;;;;;;1999.90;999.90;;;8.10;99.90;;;;;;5036886;28;20263;-79
2021/11/13 08:29:31;;;;;;;1999.90;999.90;;;8.20;99.90;;;;;;5058354;28;20199;-78
2021/11/13 08:31:56;;;;;;;1999.90;999.90;;;8.30;99.90;;;;;;5058866;28;20576;-78
2021/11/13 08:34:22;;;;;;;1999.90;999.90;;;8.20;99.90;;;;;;5059700;28;20174;-79
2021/11/13 08:36:47;;;;;;;1999.90;999.90;;;8.40;99.90;;;;;;5058554;28;20596;-79
2021/11/13 08:39:13;;;;;;;1999.90;999.90;;;8.40;99.90;;;;;;5058183;28;20256;-79
2021/11/13 08:41:39;;;;;;;1999.90;999.90;;;8.30;99.90;;;;;;5058823;28;20244;-78
2021/11/13 08:44:04;;;;;;;1999.90;999.90;;;8.30;99.90;;;;;;5058959;28;20173;-78
2021/11/13 08:46:33;;;;;;;1999.90;999.90;;;8.50;99.90;;;;;;5074759;28;20510;-79
2021/11/13 08:48:59;;;;;;;1999.90;999.90;;;8.20;99.90;;;;;;5074996;28;20843;-79
2021/11/13 08:51:25;;;;;;;1999.90;999.90;;;8.50;99.90;;;;;;5058191;28;20214;-79
2021/11/13 08:53:54;;;;;;;1999.90;999.90;;;8.30;99.90;;;;;;5057410;28;20182;-78
2021/11/13 08:56:27;;;;;;;1999.90;999.90;;;8.50;99.90;;;;;;5059335;28;20177;-79
2021/11/13 08:58:53;;;;;;;1999.90;999.90;;;8.40;99.90;;;;;;5058516;28;20188;-78
2021/11/13 09:01:20;;;;;;;1999.90;999.90;;;;;;;;;;5058794;28;20230;-79
2021/11/13 09:03:45;;;;;;;1999.90;999.90;;;8.40;99.90;;;;;;5057785;28;20851;-78
2021/11/13 09:06:16;;;;;;;1999.90;999.90;;;8.40;99.90;;;;;;5043223;28;20198;-78
2021/11/13 09:08:43;;;;;;;1999.90;999.90;;;;;;;;;;5053266;28;20553;-79
2021/11/13 09:11:09;;;;;;;1999.90;999.90;;;8.20;99.90;;;;;;5036341;28;20208;-79
2021/11/13 09:13:36;;;;;;;1999.90;999.90;;;;;;;;;;5051774;28;20174;-79
2021/11/13 09:16:03;;;;;;;1999.90;999.90;;;;;;;;;;5034767;28;20521;-79
2021/11/13 09:18:28;;;;;;;1999.90;999.90;;;8.50;99.90;;;;;;5035193;28;20188;-79
2021/11/13 09:20:55;;;;;;;1999.90;999.90;;;;;;;;;;5035068;28;20202;-79
2021/11/13 09:23:22;;;;;;;1999.90;999.90;;;8.50;99.90;;;;;;5035670;28;20203;-78
2021/11/13 09:25:48;;;;;;;1999.90;999.90;;;;;;;;;;5052743;28;20181;-77
2021/11/13 09:28:14;;;;;;;1999.90;999.90;;;8.50;99.90;;;;;;5033408;28;20194;-81
2021/11/13 09:30:40;;;;;;;1999.90;999.90;;;8.30;99.90;;;;;;5050954;28;20198;-81
2021/11/13 09:33:07;;;;;;;1999.90;999.90;;;;;;;;;;5052008;28;20633;-80
2021/11/13 09:35:33;;;;;;;1999.90;999.90;;;;;;;;;;5035285;28;20188;-80
2021/11/13 09:37:59;;;;;;;1999.90;999.90;;;8.60;99.90;;;;;;5050515;28;20182;-78
2021/11/13 09:40:25;;;;;;;1999.90;999.90;;;8.80;99.90;;;;;;5053153;28;20291;-79
2021/11/13 09:42:52;;;;;;;1999.90;999.90;;;8.70;99.90;;;;;;5070141;28;20209;-78
2021/11/13 09:45:18;;;;;;;1999.90;999.90;;;8.90;99.90;;;;;;5040111;28;20277;-78
2021/11/13 09:47:45;;;;;;;1999.90;999.90;;;;;;;;;;5033686;28;20268;-79
2021/11/13 09:50:10;;;;;;;1999.90;999.90;;;8.70;99.90;;;;;;5038526;28;20198;-78
2021/11/13 09:52:36;;;;;;;1999.90;999.90;;;8.90;99.90;;;;;;5045969;28;20178;-79
2021/11/13 09:55:04;;;;;;;1999.90;999.90;;;;;;;;;;5028476;28;20182;-79
2021/11/13 09:57:29;;;;;;;1999.90;999.90;;;8.80;99.90;;;;;;5055079;28;20190;-80
2021/11/13 09:59:55;;;;;;;1999.90;999.90;;;9.00;99.90;;;;;;5057254;28;20197;-80
2021/11/13 10:02:21;;;;;;;1999.90;999.90;;;9.00;99.90;;;;;;5059209;28;20196;-77
2021/11/13 10:04:47;;;;;;;1999.90;999.90;;;9.00;99.90;;;;;;5034329;28;20173;-78
2021/11/13 10:07:13;;;;;;;1999.90;999.90;;;;;;;;;;5032976;28;20182;-77
2021/11/13 10:09:38;;;;;;;1999.90;999.90;;;8.90;99.90;;;;;;5043466;28;20201;-78
2021/11/13 10:12:05;;;;;;;1999.90;999.90;;;9.10;99.90;;;;;;5066716;28;20183;-80
2021/11/13 10:14:36;;;;;;;1999.90;999.90;;;9.10;99.90;;;;;;5064117;28;20177;-79
2021/11/13 10:17:01;;;;;;;1999.90;999.90;;;9.20;99.90;;;;;;5069386;28;20198;-79
2021/11/13 10:19:27;;;;;;;1999.90;999.90;;;9.20;99.90;;;;;;5070953;28;20218;-79
2021/11/13 10:21:56;;;;;;;1999.90;999.90;;;9.20;99.90;;;;;;5042846;28;20202;-79
2021/11/13 10:24:24;;;;;;;1999.90;999.90;;;9.50;99.90;;;;;;5048859;28;20187;-78
2021/11/13 10:26:51;;;;;;;1999.90;999.90;;;9.40;99.90;;;;;;5059889;28;20185;-77
2021/11/13 10:29:31;;;;;;;1999.90;999.90;;;9.30;99.90;;;;;;5049803;28;20265;-79
2021/11/13 10:32:02;;;;;;;1999.90;999.90;;;9.30;99.90;;;;;;5030904;28;20183;-78
2021/11/13 10:34:34;;;;;;;1999.90;999.90;;;;;;;;;;5047359;28;20190;-79
2021/11/13 10:37:01;;;;;;;1999.90;999.90;;;;;;;;;;5049593;28;20182;-78
2021/11/13 10:39:29;;;;;;;1999.90;999.90;;;9.20;99.90;;;;;;5050282;28;20199;-77
2021/11/13 10:41:56;;;;;;;1999.90;999.90;;;9.50;99.90;;;;;;5028194;28;20208;-78
2021/11/13 10:44:44;;;;;;;1999.90;999.90;;;9.40;99.90;;;;;;5033489;28;20177;-76
2021/11/13 10:47:17;;;;;;;1999.90;999.90;;;;;;;;;;5050476;28;20215;-77
2021/11/13 10:49:43;;;;;;;1999.90;999.90;;;;;;;;;;5060630;28;20752;-77
2021/11/13 10:52:10;;;;;;;1999.90;999.90;;;;;;;;;;5038257;28;20197;-77
2021/11/13 10:54:36;;;;;;;1999.90;999.90;;;9.30;99.90;;;;;;5054215;28;20202;-76
2021/11/13 10:57:03;;;;;;;1999.90;999.90;;;;;;;;;;5054675;28;20297;-78
2021/11/13 10:59:31;;;;;;;1999.90;999.90;;;;;;;;;;5037663;28;20580;-78
2021/11/13 11:01:57;;;;;;;1999.90;999.90;;;;;;;;;;5038067;28;20275;-77
2021/11/13 11:04:24;;;;;;;1999.90;999.90;;;;;;;;;;5055119;28;20197;-76
2021/11/13 11:06:54;;;;;;;1999.90;999.90;;;;;;;;;;5055303;28;20242;-78
2021/11/13 11:09:31;;;;;;;1999.90;999.90;;;;;;;;;;5054145;28;20234;-79
2021/11/13 11:12:01;;;;;;;1999.90;999.90;;;;;;;;;;5054189;28;20577;-77
2021/11/13 11:14:28;;;;;;;1999.90;999.90;;;;;;;;;;5048845;28;20185;-78
2021/11/13 11:16:56;;;;;;;1999.90;999.90;;;9.60;99.90;;;;;;5061751;28;20222;-78
2021/11/13 11:19:27;;;;;;;1999.90;999.90;;;9.60;99.90;;;;;;5071879;28;20205;-78
2021/11/13 11:22:00;;;;;;;1999.90;999.90;;;9.60;99.90;;;;;;5039548;28;20215;-79
2021/11/13 11:24:37;;;;;;;1999.90;999.90;;;9.50;99.90;;;;;;5056055;28;20178;-78
2021/11/13 11:27:14;;;;;;;1999.90;999.90;;;9.60;99.90;;;;;;5072984;28;20208;-78
2021/11/13 11:29:52;;;;;;;1999.90;999.90;;;9.70;99.90;;;;;;5043895;28;20616;-78
2021/11/13 11:32:24;;;;;;;1999.90;999.90;;;8.90;99.90;;;;;;5050284;28;20183;-78
2021/11/13 11:34:50;;;;;;;1999.90;999.90;;;9.60;99.90;;;;;;5059588;28;20637;-78
2021/11/13 11:37:24;;;;;;;1999.90;999.90;;;9.70;99.90;;;;;;5057584;28;20179;-77
2021/11/13 11:39:52;;;;;;;1999.90;999.90;;;9.70;99.90;;;;;;5043857;28;20210;-77
2021/11/13 11:42:19;;;;;;;1999.90;999.90;;;;;;;;;;5038379;28;20570;-78
2021/11/13 11:44:45;;;;;;;1999.90;999.90;;;9.60;99.90;;;;;;5037933;28;20248;-77
2021/11/13 11:47:14;;;;;;;1999.90;999.90;;;9.80;99.90;;;;;;5035927;28;20185;-78
2021/11/13 11:49:49;;;;;;;1999.90;999.90;;;9.10;99.90;;;;;;5053460;28;20674;-78
2021/11/13 11:52:16;;;;;;;1999.90;999.90;;;9.80;99.90;;;;;;5058714;28;20654;-78
2021/11/13 11:54:43;;;;;;;1999.90;999.90;;;9.80;99.90;;;;;;5026682;28;20431;-78
2021/11/13 11:57:10;;;;;;;1999.90;999.90;;;9.90;99.90;;;;;;5021717;28;20184;-78
2021/11/13 11:59:38;;;;;;;1999.90;999.90;;;9.90;99.90;;;;;;5051978;28;20216;-77
2021/11/13 12:02:11;;;;;;;1999.90;999.90;;;10.00;99.90;;;;;;5053824;28;20233;-78
2021/11/13 12:04:37;;;;;;;1999.90;999.90;;;9.90;99.90;;;;;;5021953;28;20180;-78
2021/11/13 12:07:04;;;;;;;1999.90;999.90;;;;;;;;;;5038422;28;20177;-78
2021/11/13 12:09:30;;;;;;;1999.90;999.90;;;10.40;99.90;;;;;;5038751;28;20210;-78
2021/11/13 12:12:19;;;;;;;1999.90;999.90;;;10.10;99.90;;;;;;5023440;28;20266;-78
2021/11/13 12:14:45;;;;;;;1999.90;999.90;;;10.10;99.90;;;;;;5037458;28;20550;-78